sensor_id;sensor_type;location;lat;lon;timestamp;P1;durP1;ratioP1;P2;durP2;ratioP2
33160;SDS011;19522;45.656;11.302;2023-04-25T00:01:04;1.85;;;0.98;;
33160;SDS011;19522;45.656;11.302;2023-04-25T00:03:34;5.20;;;1.30;;
33160;SDS011;19522;45.656;11.302;2023-04-25T00:06:00;2.60;;;0.90;;
33160;SDS011;19522;45.656;11.302;2023-04-25T00:08:29;1.95;;;1.00;;
33160;SDS011;19522;45.656;11.302;2023-04-25T00:10:56;3.13;;;0.75;;
33160;SDS011;19522;45.656;11.302;2023-04-25T00:13:22;1.98;;;0.65;;
33160;SDS011;19522;45.656;11.302;2023-04-25T00:15:47;3.55;;;0.70;;
33160;SDS011;19522;45.656;11.302;2023-04-25T00:18:13;1.77;;;0.68;;
33160;SDS011;19522;45.656;11.302;2023-04-25T00:20:39;2.42;;;0.80;;
33160;SDS011;19522;45.656;11.302;2023-04-25T00:23:05;2.28;;;0.80;;
33160;SDS011;19522;45.656;11.302;2023-04-25T00:25:31;1.67;;;0.60;;
33160;SDS011;19522;45.656;11.302;2023-04-25T00:27:56;1.67;;;0.60;;
33160;SDS011;19522;45.656;11.302;2023-04-25T00:30:22;2.38;;;0.75;;
33160;SDS011;19522;45.656;11.302;2023-04-25T00:32:47;1.70;;;0.70;;
33160;SDS011;19522;45.656;11.302;2023-04-25T00:35:13;1.65;;;0.60;;
33160;SDS011;19522;45.656;11.302;2023-04-25T00:37:39;4.47;;;0.82;;
33160;SDS011;19522;45.656;11.302;2023-04-25T00:40:05;3.50;;;0.73;;
33160;SDS011;19522;45.656;11.302;2023-04-25T00:42:31;2.35;;;0.80;;
33160;SDS011;19522;45.656;11.302;2023-04-25T00:44:58;3.70;;;0.98;;
33160;SDS011;19522;45.656;11.302;2023-04-25T00:47:25;1.27;;;0.70;;
33160;SDS011;19522;45.656;11.302;2023-04-25T00:49:50;1.10;;;0.60;;
33160;SDS011;19522;45.656;11.302;2023-04-25T00:52:16;0.40;;;0.40;;
33160;SDS011;19522;45.656;11.302;2023-04-25T00:54:41;1.60;;;0.50;;
33160;SDS011;19522;45.656;11.302;2023-04-25T00:57:07;0.82;;;0.47;;
33160;SDS011;19522;45.656;11.302;2023-04-25T00:59:33;2.78;;;0.63;;
33160;SDS011;19522;45.656;11.302;2023-04-25T01:01:59;0.98;;;0.45;;
33160;SDS011;19522;45.656;11.302;2023-04-25T01:04:27;1.02;;;0.70;;
33160;SDS011;19522;45.656;11.302;2023-04-25T01:06:52;1.92;;;0.40;;
33160;SDS011;19522;45.656;11.302;2023-04-25T01:09:19;1.08;;;0.47;;
33160;SDS011;19522;45.656;11.302;2023-04-25T01:11:45;1.60;;;0.50;;
33160;SDS011;19522;45.656;11.302;2023-04-25T01:14:10;3.22;;;0.50;;
33160;SDS011;19522;45.656;11.302;2023-04-25T01:16:36;3.25;;;0.70;;
33160;SDS011;19522;45.656;11.302;2023-04-25T01:19:04;1.70;;;0.70;;
33160;SDS011;19522;45.656;11.302;2023-04-25T01:21:34;0.82;;;0.50;;
33160;SDS011;19522;45.656;11.302;2023-04-25T01:24:00;0.90;;;0.52;;
33160;SDS011;19522;45.656;11.302;2023-04-25T01:26:26;2.50;;;0.40;;
33160;SDS011;19522;45.656;11.302;2023-04-25T01:28:52;1.25;;;0.52;;
33160;SDS011;19522;45.656;11.302;2023-04-25T01:31:17;1.67;;;0.63;;
33160;SDS011;19522;45.656;11.302;2023-04-25T01:33:44;1.73;;;0.60;;
33160;SDS011;19522;45.656;11.302;2023-04-25T01:36:10;0.63;;;0.40;;
33160;SDS011;19522;45.656;11.302;2023-04-25T01:38:36;0.57;;;0.35;;
33160;SDS011;19522;45.656;11.302;2023-04-25T01:41:01;2.05;;;0.60;;
33160;SDS011;19522;45.656;11.302;2023-04-25T01:43:27;1.25;;;0.50;;
33160;SDS011;19522;45.656;11.302;2023-04-25T01:45:52;1.48;;;0.57;;
33160;SDS011;19522;45.656;11.302;2023-04-25T01:48:18;0.50;;;0.30;;
33160;SDS011;19522;45.656;11.302;2023-04-25T01:50:44;1.70;;;0.40;;
33160;SDS011;19522;45.656;11.302;2023-04-25T01:53:10;0.50;;;0.38;;
33160;SDS011;19522;45.656;11.302;2023-04-25T01:55:38;0.90;;;0.43;;
33160;SDS011;19522;45.656;11.302;2023-04-25T01:58:03;0.80;;;0.47;;
33160;SDS011;19522;45.656;11.302;2023-04-25T02:00:34;0.63;;;0.55;;
33160;SDS011;19522;45.656;11.302;2023-04-25T02:03:00;0.30;;;0.30;;
33160;SDS011;19522;45.656;11.302;2023-04-25T02:05:26;0.50;;;0.32;;
33160;SDS011;19522;45.656;11.302;2023-04-25T02:07:51;0.60;;;0.40;;
33160;SDS011;19522;45.656;11.302;2023-04-25T02:10:17;0.90;;;0.35;;
33160;SDS011;19522;45.656;11.302;2023-04-25T02:12:42;0.35;;;0.30;;
33160;SDS011;19522;45.656;11.302;2023-04-25T02:15:08;1.65;;;0.50;;
33160;SDS011;19522;45.656;11.302;2023-04-25T02:17:33;0.50;;;0.30;;
33160;SDS011;19522;45.656;11.302;2023-04-25T02:19:59;0.90;;;0.30;;
33160;SDS011;19522;45.656;11.302;2023-04-25T02:22:24;0.55;;;0.43;;
33160;SDS011;19522;45.656;11.302;2023-04-25T02:24:51;0.50;;;0.30;;
33160;SDS011;19522;45.656;11.302;2023-04-25T02:27:16;3.63;;;0.63;;
33160;SDS011;19522;45.656;11.302;2023-04-25T02:29:42;0.95;;;0.30;;
33160;SDS011;19522;45.656;11.302;2023-04-25T02:32:07;0.55;;;0.40;;
33160;SDS011;19522;45.656;11.302;2023-04-25T02:34:33;1.17;;;0.40;;
33160;SDS011;19522;45.656;11.302;2023-04-25T02:37:07;1.63;;;0.50;;
33160;SDS011;19522;45.656;11.302;2023-04-25T02:39:37;0.32;;;0.32;;
33160;SDS011;19522;45.656;11.302;2023-04-25T02:42:06;0.50;;;0.40;;
33160;SDS011;19522;45.656;11.302;2023-04-25T02:44:31;1.35;;;0.32;;
33160;SDS011;19522;45.656;11.302;2023-04-25T02:46:57;1.10;;;0.40;;
33160;SDS011;19522;45.656;11.302;2023-04-25T02:49:22;1.52;;;0.50;;
33160;SDS011;19522;45.656;11.302;2023-04-25T02:51:48;0.50;;;0.40;;
33160;SDS011;19522;45.656;11.302;2023-04-25T02:54:13;0.70;;;0.38;;
33160;SDS011;19522;45.656;11.302;2023-04-25T02:56:38;0.88;;;0.47;;
33160;SDS011;19522;45.656;11.302;2023-04-25T02:59:04;0.55;;;0.40;;
33160;SDS011;19522;45.656;11.302;2023-04-25T03:01:30;1.73;;;0.45;;
33160;SDS011;19522;45.656;11.302;2023-04-25T03:03:55;1.48;;;0.50;;
33160;SDS011;19522;45.656;11.302;2023-04-25T03:06:21;0.77;;;0.40;;
33160;SDS011;19522;45.656;11.302;2023-04-25T03:08:46;4.22;;;0.50;;
33160;SDS011;19522;45.656;11.302;2023-04-25T03:11:12;0.40;;;0.30;;
33160;SDS011;19522;45.656;11.302;2023-04-25T03:13:37;0.85;;;0.40;;
33160;SDS011;19522;45.656;11.302;2023-04-25T03:16:03;1.95;;;0.30;;
33160;SDS011;19522;45.656;11.302;2023-04-25T03:18:28;1.63;;;0.40;;
33160;SDS011;19522;45.656;11.302;2023-04-25T03:20:54;0.57;;;0.40;;
33160;SDS011;19522;45.656;11.302;2023-04-25T03:23:20;0.85;;;0.40;;
33160;SDS011;19522;45.656;11.302;2023-04-25T03:25:45;0.63;;;0.60;;
33160;SDS011;19522;45.656;11.302;2023-04-25T03:28:11;1.33;;;0.90;;
33160;SDS011;19522;45.656;11.302;2023-04-25T03:30:36;2.67;;;0.77;;
33160;SDS011;19522;45.656;11.302;2023-04-25T03:33:02;0.90;;;0.60;;
33160;SDS011;19522;45.656;11.302;2023-04-25T03:35:27;2.15;;;0.60;;
33160;SDS011;19522;45.656;11.302;2023-04-25T03:37:53;2.70;;;0.80;;
33160;SDS011;19522;45.656;11.302;2023-04-25T03:40:18;1.80;;;0.50;;
33160;SDS011;19522;45.656;11.302;2023-04-25T03:42:44;2.15;;;0.45;;
33160;SDS011;19522;45.656;11.302;2023-04-25T03:45:09;0.88;;;0.50;;
33160;SDS011;19522;45.656;11.302;2023-04-25T03:47:35;0.52;;;0.43;;
33160;SDS011;19522;45.656;11.302;2023-04-25T03:50:00;0.85;;;0.50;;
33160;SDS011;19522;45.656;11.302;2023-04-25T03:52:27;0.63;;;0.52;;
33160;SDS011;19522;45.656;11.302;2023-04-25T03:54:52;2.25;;;0.68;;
33160;SDS011;19522;45.656;11.302;2023-04-25T03:57:18;1.40;;;0.65;;
33160;SDS011;19522;45.656;11.302;2023-04-25T03:59:43;1.15;;;0.52;;
33160;SDS011;19522;45.656;11.302;2023-04-25T04:02:09;1.42;;;0.75;;
33160;SDS011;19522;45.656;11.302;2023-04-25T04:04:35;3.05;;;0.63;;
33160;SDS011;19522;45.656;11.302;2023-04-25T04:07:01;2.35;;;0.70;;
33160;SDS011;19522;45.656;11.302;2023-04-25T04:09:26;2.60;;;0.80;;
33160;SDS011;19522;45.656;11.302;2023-04-25T04:11:52;4.55;;;1.00;;
33160;SDS011;19522;45.656;11.302;2023-04-25T04:14:18;3.00;;;0.63;;
33160;SDS011;19522;45.656;11.302;2023-04-25T04:16:44;1.13;;;0.60;;
33160;SDS011;19522;45.656;11.302;2023-04-25T04:19:10;4.28;;;0.90;;
33160;SDS011;19522;45.656;11.302;2023-04-25T04:21:35;1.85;;;0.95;;
33160;SDS011;19522;45.656;11.302;2023-04-25T04:24:01;3.30;;;1.10;;
33160;SDS011;19522;45.656;11.302;2023-04-25T04:26:27;1.48;;;0.70;;
33160;SDS011;19522;45.656;11.302;2023-04-25T04:28:52;1.70;;;0.70;;
33160;SDS011;19522;45.656;11.302;2023-04-25T04:31:22;1.92;;;0.68;;
33160;SDS011;19522;45.656;11.302;2023-04-25T04:33:47;0.85;;;0.70;;
33160;SDS011;19522;45.656;11.302;2023-04-25T04:36:13;1.67;;;0.85;;
33160;SDS011;19522;45.656;11.302;2023-04-25T04:38:41;4.07;;;1.30;;
33160;SDS011;19522;45.656;11.302;2023-04-25T04:41:09;2.13;;;0.73;;
33160;SDS011;19522;45.656;11.302;2023-04-25T04:43:35;2.83;;;1.33;;
33160;SDS011;19522;45.656;11.302;2023-04-25T04:46:01;3.10;;;1.38;;
33160;SDS011;19522;45.656;11.302;2023-04-25T04:48:29;1.77;;;0.93;;
33160;SDS011;19522;45.656;11.302;2023-04-25T04:50:57;1.58;;;1.17;;
33160;SDS011;19522;45.656;11.302;2023-04-25T04:53:23;5.13;;;1.10;;
33160;SDS011;19522;45.656;11.302;2023-04-25T04:55:48;2.28;;;1.48;;
33160;SDS011;19522;45.656;11.302;2023-04-25T04:58:14;1.90;;;0.80;;
33160;SDS011;19522;45.656;11.302;2023-04-25T05:00:40;2.33;;;1.20;;
33160;SDS011;19522;45.656;11.302;2023-04-25T05:03:05;2.05;;;0.80;;
33160;SDS011;19522;45.656;11.302;2023-04-25T05:05:31;2.88;;;0.75;;
33160;SDS011;19522;45.656;11.302;2023-04-25T05:07:56;1.52;;;1.17;;
33160;SDS011;19522;45.656;11.302;2023-04-25T05:10:22;4.38;;;1.85;;
33160;SDS011;19522;45.656;11.302;2023-04-25T05:12:47;2.70;;;1.75;;
33160;SDS011;19522;45.656;11.302;2023-04-25T05:15:13;5.10;;;1.67;;
33160;SDS011;19522;45.656;11.302;2023-04-25T05:17:38;4.60;;;1.27;;
33160;SDS011;19522;45.656;11.302;2023-04-25T05:20:05;2.03;;;1.30;;
33160;SDS011;19522;45.656;11.302;2023-04-25T05:22:32;2.42;;;1.30;;
33160;SDS011;19522;45.656;11.302;2023-04-25T05:24:57;1.90;;;1.08;;
33160;SDS011;19522;45.656;11.302;2023-04-25T05:27:23;3.20;;;1.45;;
33160;SDS011;19522;45.656;11.302;2023-04-25T05:29:49;3.47;;;1.23;;
33160;SDS011;19522;45.656;11.302;2023-04-25T05:32:14;1.40;;;1.02;;
33160;SDS011;19522;45.656;11.302;2023-04-25T05:34:40;2.53;;;0.93;;
33160;SDS011;19522;45.656;11.302;2023-04-25T05:37:06;2.53;;;0.90;;
33160;SDS011;19522;45.656;11.302;2023-04-25T05:39:32;2.22;;;0.77;;
33160;SDS011;19522;45.656;11.302;2023-04-25T05:41:57;4.47;;;1.00;;
33160;SDS011;19522;45.656;11.302;2023-04-25T05:44:23;2.78;;;0.95;;
33160;SDS011;19522;45.656;11.302;2023-04-25T05:46:48;2.53;;;0.80;;
33160;SDS011;19522;45.656;11.302;2023-04-25T05:49:14;2.30;;;0.93;;
33160;SDS011;19522;45.656;11.302;2023-04-25T05:51:40;1.58;;;0.90;;
33160;SDS011;19522;45.656;11.302;2023-04-25T05:54:05;2.88;;;1.08;;
33160;SDS011;19522;45.656;11.302;2023-04-25T05:56:31;1.98;;;1.00;;
33160;SDS011;19522;45.656;11.302;2023-04-25T05:58:56;1.65;;;0.93;;
33160;SDS011;19522;45.656;11.302;2023-04-25T06:01:22;2.65;;;0.88;;
33160;SDS011;19522;45.656;11.302;2023-04-25T06:03:48;1.17;;;0.73;;
33160;SDS011;19522;45.656;11.302;2023-04-25T06:06:14;3.58;;;1.20;;
33160;SDS011;19522;45.656;11.302;2023-04-25T06:08:40;3.85;;;0.80;;
33160;SDS011;19522;45.656;11.302;2023-04-25T06:11:06;2.75;;;1.05;;
33160;SDS011;19522;45.656;11.302;2023-04-25T06:13:31;2.92;;;1.30;;
33160;SDS011;19522;45.656;11.302;2023-04-25T06:15:57;1.65;;;1.02;;
33160;SDS011;19522;45.656;11.302;2023-04-25T06:18:23;2.97;;;0.88;;
33160;SDS011;19522;45.656;11.302;2023-04-25T06:20:48;1.35;;;0.75;;
33160;SDS011;19522;45.656;11.302;2023-04-25T06:23:14;3.38;;;0.90;;
33160;SDS011;19522;45.656;11.302;2023-04-25T06:25:39;4.18;;;1.10;;
33160;SDS011;19522;45.656;11.302;2023-04-25T06:28:05;2.05;;;1.10;;
33160;SDS011;19522;45.656;11.302;2023-04-25T06:30:30;3.13;;;1.08;;
33160;SDS011;19522;45.656;11.302;2023-04-25T06:32:58;3.85;;;1.20;;
33160;SDS011;19522;45.656;11.302;2023-04-25T06:35:24;4.38;;;1.83;;
33160;SDS011;19522;45.656;11.302;2023-04-25T06:37:50;5.55;;;2.53;;
33160;SDS011;19522;45.656;11.302;2023-04-25T06:40:15;6.45;;;4.40;;
33160;SDS011;19522;45.656;11.302;2023-04-25T06:42:42;5.80;;;3.33;;
33160;SDS011;19522;45.656;11.302;2023-04-25T06:45:08;5.47;;;2.15;;
33160;SDS011;19522;45.656;11.302;2023-04-25T06:47:33;4.53;;;1.90;;
33160;SDS011;19522;45.656;11.302;2023-04-25T06:49:59;9.35;;;7.53;;
33160;SDS011;19522;45.656;11.302;2023-04-25T06:52:24;8.20;;;5.20;;
33160;SDS011;19522;45.656;11.302;2023-04-25T06:54:50;12.13;;;8.85;;
33160;SDS011;19522;45.656;11.302;2023-04-25T06:57:15;10.73;;;5.45;;
33160;SDS011;19522;45.656;11.302;2023-04-25T06:59:41;5.75;;;1.73;;
33160;SDS011;19522;45.656;11.302;2023-04-25T07:02:06;5.72;;;4.95;;
33160;SDS011;19522;45.656;11.302;2023-04-25T07:04:32;4.07;;;3.05;;
33160;SDS011;19522;45.656;11.302;2023-04-25T07:06:57;2.92;;;1.70;;
33160;SDS011;19522;45.656;11.302;2023-04-25T07:09:23;1.63;;;1.15;;
33160;SDS011;19522;45.656;11.302;2023-04-25T07:11:48;1.88;;;1.10;;
33160;SDS011;19522;45.656;11.302;2023-04-25T07:14:14;1.70;;;1.00;;
33160;SDS011;19522;45.656;11.302;2023-04-25T07:16:40;1.60;;;0.90;;
33160;SDS011;19522;45.656;11.302;2023-04-25T07:19:05;3.22;;;0.95;;
33160;SDS011;19522;45.656;11.302;2023-04-25T07:21:31;2.13;;;0.80;;
33160;SDS011;19522;45.656;11.302;2023-04-25T07:23:57;1.33;;;0.82;;
33160;SDS011;19522;45.656;11.302;2023-04-25T07:26:22;1.45;;;0.80;;
33160;SDS011;19522;45.656;11.302;2023-04-25T07:28:48;1.52;;;0.75;;
33160;SDS011;19522;45.656;11.302;2023-04-25T07:31:16;2.55;;;0.90;;
33160;SDS011;19522;45.656;11.302;2023-04-25T07:33:43;2.92;;;0.90;;
33160;SDS011;19522;45.656;11.302;2023-04-25T07:36:10;2.65;;;1.00;;
33160;SDS011;19522;45.656;11.302;2023-04-25T07:38:35;2.55;;;1.17;;
33160;SDS011;19522;45.656;11.302;2023-04-25T07:41:01;1.05;;;0.70;;
33160;SDS011;19522;45.656;11.302;2023-04-25T07:43:26;1.88;;;1.10;;
33160;SDS011;19522;45.656;11.302;2023-04-25T07:45:52;2.53;;;1.17;;
33160;SDS011;19522;45.656;11.302;2023-04-25T07:48:17;1.90;;;1.17;;
33160;SDS011;19522;45.656;11.302;2023-04-25T07:50:44;2.05;;;1.40;;
33160;SDS011;19522;45.656;11.302;2023-04-25T07:53:09;2.05;;;1.63;;
33160;SDS011;19522;45.656;11.302;2023-04-25T07:55:35;1.70;;;1.05;;
33160;SDS011;19522;45.656;11.302;2023-04-25T07:58:01;1.23;;;0.90;;
33160;SDS011;19522;45.656;11.302;2023-04-25T08:00:28;2.38;;;1.50;;
33160;SDS011;19522;45.656;11.302;2023-04-25T08:02:54;3.15;;;1.70;;
33160;SDS011;19522;45.656;11.302;2023-04-25T08:05:19;2.60;;;1.70;;
33160;SDS011;19522;45.656;11.302;2023-04-25T08:07:45;4.22;;;1.50;;
33160;SDS011;19522;45.656;11.302;2023-04-25T08:10:10;2.83;;;1.70;;
33160;SDS011;19522;45.656;11.302;2023-04-25T08:12:36;1.92;;;1.55;;
33160;SDS011;19522;45.656;11.302;2023-04-25T08:15:01;2.20;;;1.23;;
33160;SDS011;19522;45.656;11.302;2023-04-25T08:17:27;1.95;;;1.13;;
33160;SDS011;19522;45.656;11.302;2023-04-25T08:19:52;2.13;;;1.60;;
33160;SDS011;19522;45.656;11.302;2023-04-25T08:22:18;2.20;;;1.20;;
33160;SDS011;19522;45.656;11.302;2023-04-25T08:24:43;2.40;;;0.90;;
33160;SDS011;19522;45.656;11.302;2023-04-25T08:27:09;1.95;;;1.20;;
33160;SDS011;19522;45.656;11.302;2023-04-25T08:29:34;1.35;;;0.88;;
33160;SDS011;19522;45.656;11.302;2023-04-25T08:32:00;1.60;;;0.90;;
33160;SDS011;19522;45.656;11.302;2023-04-25T08:34:26;0.90;;;0.65;;
33160;SDS011;19522;45.656;11.302;2023-04-25T08:36:51;1.98;;;0.65;;
33160;SDS011;19522;45.656;11.302;2023-04-25T08:39:17;0.80;;;0.52;;
33160;SDS011;19522;45.656;11.302;2023-04-25T08:41:43;0.52;;;0.38;;
33160;SDS011;19522;45.656;11.302;2023-04-25T08:44:12;1.85;;;0.77;;
33160;SDS011;19522;45.656;11.302;2023-04-25T08:46:38;0.77;;;0.50;;
33160;SDS011;19522;45.656;11.302;2023-04-25T08:49:07;1.92;;;0.40;;
33160;SDS011;19522;45.656;11.302;2023-04-25T08:51:36;0.45;;;0.32;;
33160;SDS011;19522;45.656;11.302;2023-04-25T08:54:12;0.52;;;0.40;;
33160;SDS011;19522;45.656;11.302;2023-04-25T08:56:40;1.85;;;0.50;;
33160;SDS011;19522;45.656;11.302;2023-04-25T08:59:09;0.90;;;0.47;;
33160;SDS011;19522;45.656;11.302;2023-04-25T09:01:35;0.88;;;0.52;;
33160;SDS011;19522;45.656;11.302;2023-04-25T09:04:01;1.42;;;0.43;;
33160;SDS011;19522;45.656;11.302;2023-04-25T09:06:28;1.25;;;0.63;;
33160;SDS011;19522;45.656;11.302;2023-04-25T09:08:54;1.13;;;0.50;;
33160;SDS011;19522;45.656;11.302;2023-04-25T09:11:19;0.30;;;0.28;;
33160;SDS011;19522;45.656;11.302;2023-04-25T09:13:45;1.20;;;0.50;;
33160;SDS011;19522;45.656;11.302;2023-04-25T09:16:11;1.83;;;0.55;;
33160;SDS011;19522;45.656;11.302;2023-04-25T09:18:36;0.85;;;0.52;;
33160;SDS011;19522;45.656;11.302;2023-04-25T09:21:06;0.40;;;0.40;;
33160;SDS011;19522;45.656;11.302;2023-04-25T09:23:39;0.80;;;0.53;;
33160;SDS011;19522;45.656;11.302;2023-04-25T09:26:16;0.40;;;0.30;;
33160;SDS011;19522;45.656;11.302;2023-04-25T09:28:45;0.50;;;0.30;;
33160;SDS011;19522;45.656;11.302;2023-04-25T09:31:13;0.50;;;0.35;;
33160;SDS011;19522;45.656;11.302;2023-04-25T09:33:46;4.13;;;0.50;;
33160;SDS011;19522;45.656;11.302;2023-04-25T09:36:12;0.70;;;0.38;;
33160;SDS011;19522;45.656;11.302;2023-04-25T09:38:41;0.40;;;0.40;;
33160;SDS011;19522;45.656;11.302;2023-04-25T09:41:09;1.05;;;0.38;;
33160;SDS011;19522;45.656;11.302;2023-04-25T09:43:35;0.63;;;0.45;;
33160;SDS011;19522;45.656;11.302;2023-04-25T09:46:01;0.85;;;0.50;;
33160;SDS011;19522;45.656;11.302;2023-04-25T09:48:28;0.82;;;0.50;;
33160;SDS011;19522;45.656;11.302;2023-04-25T09:51:07;1.77;;;0.98;;
33160;SDS011;19522;45.656;11.302;2023-04-25T09:53:42;1.85;;;0.88;;
33160;SDS011;19522;45.656;11.302;2023-04-25T09:56:10;1.55;;;0.57;;
33160;SDS011;19522;45.656;11.302;2023-04-25T09:58:37;1.10;;;0.40;;
33160;SDS011;19522;45.656;11.302;2023-04-25T10:01:05;1.38;;;0.88;;
33160;SDS011;19522;45.656;11.302;2023-04-25T10:03:33;2.25;;;1.00;;
33160;SDS011;19522;45.656;11.302;2023-04-25T10:06:01;0.77;;;0.68;;
33160;SDS011;19522;45.656;11.302;2023-04-25T10:08:30;2.10;;;0.68;;
33160;SDS011;19522;45.656;11.302;2023-04-25T10:10:59;2.58;;;0.70;;
33160;SDS011;19522;45.656;11.302;2023-04-25T10:13:26;2.83;;;1.75;;
33160;SDS011;19522;45.656;11.302;2023-04-25T10:15:53;1.20;;;0.65;;
33160;SDS011;19522;45.656;11.302;2023-04-25T10:18:19;1.73;;;0.77;;
33160;SDS011;19522;45.656;11.302;2023-04-25T10:20:45;0.93;;;0.60;;
33160;SDS011;19522;45.656;11.302;2023-04-25T10:23:14;0.98;;;0.70;;
33160;SDS011;19522;45.656;11.302;2023-04-25T10:25:42;0.98;;;0.60;;
33160;SDS011;19522;45.656;11.302;2023-04-25T10:28:08;2.47;;;0.70;;
33160;SDS011;19522;45.656;11.302;2023-04-25T10:30:33;1.73;;;0.50;;
33160;SDS011;19522;45.656;11.302;2023-04-25T10:32:59;1.00;;;0.55;;
33160;SDS011;19522;45.656;11.302;2023-04-25T10:35:29;1.63;;;0.70;;
33160;SDS011;19522;45.656;11.302;2023-04-25T10:38:05;1.75;;;1.13;;
33160;SDS011;19522;45.656;11.302;2023-04-25T10:40:35;1.13;;;0.63;;
33160;SDS011;19522;45.656;11.302;2023-04-25T10:48:48;2.00;;;0.60;;
33160;SDS011;19522;45.656;11.302;2023-04-25T10:51:21;6.45;;;3.33;;
33160;SDS011;19522;45.656;11.302;2023-04-25T10:53:48;4.25;;;1.98;;
33160;SDS011;19522;45.656;11.302;2023-04-25T10:56:22;3.17;;;1.75;;
33160;SDS011;19522;45.656;11.302;2023-04-25T10:58:50;2.28;;;1.15;;
33160;SDS011;19522;45.656;11.302;2023-04-25T11:01:19;3.00;;;1.48;;
33160;SDS011;19522;45.656;11.302;2023-04-25T11:03:46;2.00;;;0.77;;
33160;SDS011;19522;45.656;11.302;2023-04-25T11:06:20;2.10;;;0.90;;
33160;SDS011;19522;45.656;11.302;2023-04-25T11:08:50;1.52;;;0.70;;
33160;SDS011;19522;45.656;11.302;2023-04-25T11:11:16;1.00;;;0.40;;
33160;SDS011;19522;45.656;11.302;2023-04-25T11:13:43;1.17;;;0.47;;
33160;SDS011;19522;45.656;11.302;2023-04-25T11:16:13;0.63;;;0.50;;
33160;SDS011;19522;45.656;11.302;2023-04-25T11:18:40;1.70;;;0.50;;
33160;SDS011;19522;45.656;11.302;2023-04-25T11:21:06;1.10;;;0.57;;
33160;SDS011;19522;45.656;11.302;2023-04-25T11:23:32;2.00;;;0.90;;
33160;SDS011;19522;45.656;11.302;2023-04-25T11:25:58;1.00;;;0.73;;
33160;SDS011;19522;45.656;11.302;2023-04-25T11:28:25;1.73;;;0.85;;
33160;SDS011;19522;45.656;11.302;2023-04-25T11:30:51;1.23;;;0.70;;
33160;SDS011;19522;45.656;11.302;2023-04-25T11:33:17;1.45;;;0.60;;
33160;SDS011;19522;45.656;11.302;2023-04-25T11:35:43;1.20;;;0.70;;
33160;SDS011;19522;45.656;11.302;2023-04-25T11:38:08;1.60;;;0.70;;
33160;SDS011;19522;45.656;11.302;2023-04-25T11:40:35;2.40;;;0.70;;
33160;SDS011;19522;45.656;11.302;2023-04-25T11:43:01;1.50;;;0.70;;
33160;SDS011;19522;45.656;11.302;2023-04-25T11:45:27;1.90;;;0.90;;
33160;SDS011;19522;45.656;11.302;2023-04-25T11:47:54;1.63;;;1.10;;
33160;SDS011;19522;45.656;11.302;2023-04-25T11:50:19;1.88;;;1.35;;
33160;SDS011;19522;45.656;11.302;2023-04-25T11:52:46;2.05;;;1.13;;
33160;SDS011;19522;45.656;11.302;2023-04-25T11:55:13;3.10;;;1.00;;
33160;SDS011;19522;45.656;11.302;2023-04-25T11:57:39;2.42;;;1.02;;
33160;SDS011;19522;45.656;11.302;2023-04-25T12:00:09;1.50;;;0.98;;
33160;SDS011;19522;45.656;11.302;2023-04-25T12:02:45;1.35;;;0.88;;
33160;SDS011;19522;45.656;11.302;2023-04-25T12:05:14;1.70;;;0.90;;
33160;SDS011;19522;45.656;11.302;2023-04-25T12:07:43;1.08;;;0.80;;
33160;SDS011;19522;45.656;11.302;2023-04-25T12:10:09;1.45;;;0.90;;
33160;SDS011;19522;45.656;11.302;2023-04-25T12:12:36;2.50;;;1.70;;
33160;SDS011;19522;45.656;11.302;2023-04-25T12:17:47;2.58;;;1.50;;
33160;SDS011;19522;45.656;11.302;2023-04-25T12:20:20;2.97;;;1.70;;
33160;SDS011;19522;45.656;11.302;2023-04-25T12:22:49;2.47;;;1.70;;
33160;SDS011;19522;45.656;11.302;2023-04-25T12:33:30;1.50;;;1.30;;
33160;SDS011;19522;45.656;11.302;2023-04-25T12:36:00;2.15;;;1.70;;
33160;SDS011;19522;45.656;11.302;2023-04-25T12:38:40;1.25;;;1.08;;
33160;SDS011;19522;45.656;11.302;2023-04-25T12:41:07;3.65;;;1.85;;
33160;SDS011;19522;45.656;11.302;2023-04-25T12:43:33;1.83;;;1.38;;
33160;SDS011;19522;45.656;11.302;2023-04-25T12:45:58;2.38;;;1.60;;
33160;SDS011;19522;45.656;11.302;2023-04-25T12:48:24;1.70;;;1.30;;
33160;SDS011;19522;45.656;11.302;2023-04-25T12:50:50;2.90;;;1.33;;
33160;SDS011;19522;45.656;11.302;2023-04-25T12:53:25;2.00;;;1.33;;
33160;SDS011;19522;45.656;11.302;2023-04-25T12:55:51;2.53;;;1.50;;
33160;SDS011;19522;45.656;11.302;2023-04-25T12:58:17;3.15;;;1.80;;
33160;SDS011;19522;45.656;11.302;2023-04-25T13:00:44;2.22;;;1.30;;
33160;SDS011;19522;45.656;11.302;2023-04-25T13:03:10;3.08;;;1.40;;
33160;SDS011;19522;45.656;11.302;2023-04-25T13:05:36;2.10;;;1.17;;
33160;SDS011;19522;45.656;11.302;2023-04-25T13:08:02;2.65;;;1.77;;
33160;SDS011;19522;45.656;11.302;2023-04-25T13:10:27;4.80;;;1.98;;
33160;SDS011;19522;45.656;11.302;2023-04-25T13:12:53;3.60;;;2.40;;
33160;SDS011;19522;45.656;11.302;2023-04-25T13:15:19;4.43;;;2.75;;
33160;SDS011;19522;45.656;11.302;2023-04-25T13:17:44;2.60;;;2.00;;
33160;SDS011;19522;45.656;11.302;2023-04-25T13:20:10;4.47;;;2.80;;
33160;SDS011;19522;45.656;11.302;2023-04-25T13:22:37;4.30;;;2.83;;
33160;SDS011;19522;45.656;11.302;2023-04-25T13:25:03;4.45;;;2.72;;
33160;SDS011;19522;45.656;11.302;2023-04-25T13:27:30;4.35;;;2.47;;
33160;SDS011;19522;45.656;11.302;2023-04-25T13:29:58;4.28;;;2.10;;
33160;SDS011;19522;45.656;11.302;2023-04-25T13:32:24;2.72;;;1.85;;
33160;SDS011;19522;45.656;11.302;2023-04-25T13:34:50;3.28;;;2.10;;
33160;SDS011;19522;45.656;11.302;2023-04-25T13:37:16;4.13;;;2.20;;
33160;SDS011;19522;45.656;11.302;2023-04-25T13:39:41;7.15;;;4.55;;
33160;SDS011;19522;45.656;11.302;2023-04-25T13:42:07;4.97;;;2.95;;
33160;SDS011;19522;45.656;11.302;2023-04-25T13:44:32;4.18;;;2.38;;
33160;SDS011;19522;45.656;11.302;2023-04-25T13:46:58;2.75;;;2.03;;
33160;SDS011;19522;45.656;11.302;2023-04-25T13:49:25;5.80;;;1.75;;
33160;SDS011;19522;45.656;11.302;2023-04-25T13:51:51;2.85;;;1.40;;
33160;SDS011;19522;45.656;11.302;2023-04-25T13:54:16;2.47;;;1.75;;
33160;SDS011;19522;45.656;11.302;2023-04-25T13:56:42;3.58;;;1.58;;
33160;SDS011;19522;45.656;11.302;2023-04-25T13:59:07;2.17;;;1.30;;
33160;SDS011;19522;45.656;11.302;2023-04-25T14:01:33;1.38;;;0.80;;
33160;SDS011;19522;45.656;11.302;2023-04-25T14:04:00;1.60;;;0.90;;
33160;SDS011;19522;45.656;11.302;2023-04-25T14:06:26;2.80;;;1.70;;
33160;SDS011;19522;45.656;11.302;2023-04-25T14:08:53;1.92;;;1.30;;
33160;SDS011;19522;45.656;11.302;2023-04-25T14:11:19;5.45;;;2.25;;
33160;SDS011;19522;45.656;11.302;2023-04-25T14:13:45;3.67;;;2.10;;
33160;SDS011;19522;45.656;11.302;2023-04-25T14:16:11;2.88;;;1.67;;
33160;SDS011;19522;45.656;11.302;2023-04-25T14:18:36;3.72;;;2.05;;
33160;SDS011;19522;45.656;11.302;2023-04-25T14:21:02;1.83;;;1.10;;
33160;SDS011;19522;45.656;11.302;2023-04-25T14:23:27;3.15;;;1.40;;
33160;SDS011;19522;45.656;11.302;2023-04-25T14:25:53;1.25;;;1.00;;
33160;SDS011;19522;45.656;11.302;2023-04-25T14:28:19;1.98;;;1.40;;
33160;SDS011;19522;45.656;11.302;2023-04-25T14:30:45;2.03;;;1.30;;
33160;SDS011;19522;45.656;11.302;2023-04-25T14:33:10;2.00;;;1.42;;
33160;SDS011;19522;45.656;11.302;2023-04-25T14:35:36;3.38;;;1.90;;
33160;SDS011;19522;45.656;11.302;2023-04-25T14:38:02;2.28;;;1.85;;
33160;SDS011;19522;45.656;11.302;2023-04-25T14:40:27;2.47;;;1.77;;
33160;SDS011;19522;45.656;11.302;2023-04-25T14:42:53;2.45;;;1.77;;
33160;SDS011;19522;45.656;11.302;2023-04-25T14:45:18;4.63;;;1.83;;